Time;durP1;ratioP1;P1;durP2;ratioP2;P2;SDS_P1;SDS_P2;PMS_P1;PMS_P2;Temp;Humidity;BMP_temperature;BMP_pressure;BME280_temperature;BME280_humidity;BME280_pressure;Samples;Min_cycle;Max_cycle;Signal;HPM_P1;HPM_P2
2023/10/14 00:01:11;;;;;;;5.03;2.78;;;;;;;;;;5019485;28;20037;-68
2023/10/14 00:03:44;;;;;;;4.28;2.53;;;;;;;;;;5019920;28;20029;-69
2023/10/14 00:06:12;;;;;;;5.57;2.65;;;;;;;;;;5021716;28;20029;-67
2023/10/14 00:09:14;;;;;;;13.93;3.30;;;;;;;;;;5015646;28;20107;-67
2023/10/14 00:11:50;;;;;;;7.25;2.97;;;;;;;;;;5009477;28;20390;-68
2023/10/14 00:14:18;;;;;;;7.97;2.85;;;;;;;;;;5019609;28;20026;-68
2023/10/14 00:16:54;;;;;;;7.57;3.78;;;;;;;;;;5017654;28;20042;-68
2023/10/14 00:19:20;;;;;;;7.95;4.53;;;;;;;;;;5016008;28;20087;-68
2023/10/14 00:21:48;;;;;;;6.35;3.10;;;;;;;;;;5016294;28;20116;-68
2023/10/14 00:24:37;;;;;;;3.28;2.10;;;;;;;;;;5022519;28;20393;-68
2023/10/14 00:27:07;;;;;;;6.18;2.65;;;;;;;;;;5019467;28;20032;-67
2023/10/14 00:29:34;;;;;;;5.57;3.30;;;;;;;;;;5024878;28;20025;-68
2023/10/14 00:32:04;;;;;;;3.97;2.80;;;;;;;;;;5015978;28;20033;-68
2023/10/14 00:34:30;;;;;;;5.10;2.80;;;;;;;;;;5019577;28;20025;-67
2023/10/14 00:36:56;;;;;;;6.22;2.97;;;;;;;;;;5020387;28;20065;-68
2023/10/14 00:39:24;;;;;;;4.18;2.97;;;;;;;;;;5025301;28;20457;-69
2023/10/14 00:41:50;;;;;;;7.95;2.80;;;;;;;;;;5019501;28;20717;-69
2023/10/14 00:44:17;;;;;;;3.95;3.13;;;;;;;;;;5022461;28;20091;-68
2023/10/14 00:46:48;;;;;;;7.65;3.25;;;;;;;;;;5019155;28;20477;-68
2023/10/14 00:49:15;;;;;;;9.30;3.75;;;;;;;;;;5022103;28;20361;-68
2023/10/14 00:51:42;;;;;;;4.97;3.13;;;;;;;;;;5019430;28;20029;-67
2023/10/14 00:54:12;;;;;;;5.63;2.90;;;;;;;;;;5018710;28;20026;-68
2023/10/14 00:56:42;;;;;;;3.92;2.47;;;;;;;;;;5016174;28;20044;-69
2023/10/14 00:59:09;;;;;;;5.03;2.33;;;;;;;;;;5040346;28;20049;-68
2023/10/14 01:04:21;;;;;;;4.18;2.50;;;;;;;;;;5022585;28;20063;-68
2023/10/14 01:07:21;;;;;;;4.40;2.33;;;;;;;;;;5015536;28;20123;-69
2023/10/14 01:09:48;;;;;;;8.20;2.40;;;;;;;;;;5021015;28;20037;-67
2023/10/14 01:12:16;;;;;;;4.90;3.08;;;;;;;;;;5017259;28;20060;-68
2023/10/14 01:14:46;;;;;;;5.13;2.20;;;;;;;;;;5025814;28;20030;-69
2023/10/14 01:17:21;;;;;;;3.85;2.33;;;;;;;;;;5019008;28;20383;-67
2023/10/14 01:19:47;;;;;;;5.15;2.65;;;;;;;;;;5011819;28;20157;-67
2023/10/14 01:22:13;;;;;;;5.07;2.30;;;;;;;;;;5020757;28;20111;-62
2023/10/14 01:24:41;;;;;;;6.15;2.38;;;;;;;;;;5023375;28;20037;-64
2023/10/14 01:27:07;;;;;;;4.03;2.70;;;;;;;;;;5018720;28;20418;-63
2023/10/14 01:29:39;;;;;;;2.65;1.90;;;;;;;;;;5014779;28;20030;-63
2023/10/14 01:32:26;;;;;;;3.95;2.42;;;;;;;;;;5020691;28;20052;-63
2023/10/14 01:35:00;;;;;;;2.92;2.20;;;;;;;;;;5022091;28;20098;-65
2023/10/14 01:37:34;;;;;;;3.90;2.27;;;;;;;;;;5015708;28;20429;-67
2023/10/14 01:40:39;;;;;;;4.35;1.88;;;;;;;;;;5024572;28;20059;-68
2023/10/14 01:42:56;;;;;;;5.90;2.10;;;;;;;;;;5021672;28;20553;-67
2023/10/14 01:45:39;;;;;;;2.67;1.95;;;;;;;;;;5019614;28;20516;-67
2023/10/14 01:48:12;;;;;;;4.00;2.10;;;;;;;;;;5019529;28;20041;-68
2023/10/14 01:50:39;;;;;;;3.13;1.95;;;;;;;;;;5022016;28;20030;-69
2023/10/14 01:53:10;;;;;;;3.40;2.08;;;;;;;;;;5018784;28;20032;-68
2023/10/14 01:55:36;;;;;;;5.15;2.28;;;;;;;;;;5014952;28;20096;-69
2023/10/14 01:58:03;;;;;;;3.78;2.20;;;;;;;;;;5023147;28;20029;-68
2023/10/14 02:00:37;;;;;;;3.63;1.98;;;;;;;;;;5020529;28;20033;-68
2023/10/14 02:03:07;;;;;;;5.37;2.00;;;;;;;;;;5017527;28;20512;-67
2023/10/14 02:05:36;;;;;;;2.42;1.80;;;;;;;;;;5022700;28;20783;-68
2023/10/14 02:08:02;;;;;;;3.35;1.90;;;;;;;;;;5021710;28;20018;-69
2023/10/14 02:10:29;;;;;;;3.72;1.80;;;;;;;;;;5025372;28;20087;-71
2023/10/14 02:12:56;;;;;;;2.88;1.70;;;;;;;;;;5030180;28;20018;-68
2023/10/14 02:15:24;;;;;;;4.15;1.80;;;;;;;;;;5020192;28;20486;-68
2023/10/14 02:17:50;;;;;;;3.50;1.75;;;;;;;;;;5016733;28;20021;-63
2023/10/14 02:20:27;;;;;;;3.55;1.95;;;;;;;;;;5017180;28;20115;-63
2023/10/14 02:22:57;;;;;;;3.88;1.70;;;;;;;;;;5015789;28;20029;-63
2023/10/14 02:25:31;;;;;;;5.28;2.08;;;;;;;;;;5014969;28;20033;-62
2023/10/14 02:27:57;;;;;;;6.35;3.08;;;;;;;;;;5017281;28;20466;-63
2023/10/14 02:30:23;;;;;;;3.65;2.22;;;;;;;;;;5019976;28;20125;-63
2023/10/14 02:32:49;;;;;;;4.38;2.58;;;;;;;;;;5019574;28;20025;-63
2023/10/14 02:35:16;;;;;;;3.90;2.47;;;;;;;;;;5023024;28;21003;-62
2023/10/14 02:37:42;;;;;;;4.32;2.20;;;;;;;;;;5020177;28;20065;-62
2023/10/14 02:40:24;;;;;;;2.13;1.80;;;;;;;;;;5022833;28;20025;-62
2023/10/14 02:42:57;;;;;;;5.13;2.10;;;;;;;;;;5019618;28;20026;-63
2023/10/14 02:45:23;;;;;;;5.93;2.40;;;;;;;;;;5016438;28;20034;-62
2023/10/14 02:47:50;;;;;;;3.80;1.80;;;;;;;;;;5020869;28;20079;-69
2023/10/14 02:50:23;;;;;;;2.10;1.80;;;;;;;;;;5020239;28;20100;-68
2023/10/14 02:52:50;;;;;;;4.38;2.50;;;;;;;;;;5018694;28;20421;-67
2023/10/14 02:55:25;;;;;;;4.05;1.90;;;;;;;;;;5022519;28;20025;-67
2023/10/14 02:57:51;;;;;;;3.33;2.10;;;;;;;;;;5039886;28;20501;-68
2023/10/14 03:00:29;;;;;;;3.42;1.75;;;;;;;;;;5021349;28;20029;-68
2023/10/14 03:02:55;;;;;;;2.08;1.67;;;;;;;;;;5015117;28;20034;-68
2023/10/14 03:05:50;;;;;;;4.78;2.20;;;;;;;;;;5021226;28;20605;-71
2023/10/14 03:08:17;;;;;;;5.68;2.13;;;;;;;;;;5021472;28;20037;-67
2023/10/14 03:10:45;;;;;;;4.75;2.38;;;;;;;;;;5021130;28;20029;-68
2023/10/14 03:13:11;;;;;;;4.97;2.63;;;;;;;;;;5023488;28;20017;-67
2023/10/14 03:15:47;;;;;;;4.90;2.10;;;;;;;;;;5019502;28;20025;-71
2023/10/14 03:18:16;;;;;;;2.90;1.90;;;;;;;;;;5016359;28;20032;-69
2023/10/14 03:23:41;;;;;;;3.55;2.00;;;;;;;;;;5007443;28;20064;-69
2023/10/14 03:26:14;;;;;;;2.90;1.88;;;;;;;;;;5011556;28;20029;-68
2023/10/14 03:28:44;;;;;;;3.63;1.95;;;;;;;;;;5023006;28;20521;-68
2023/10/14 03:31:15;;;;;;;4.10;1.92;;;;;;;;;;5020657;28;20092;-69
2023/10/14 03:33:44;;;;;;;3.75;2.42;;;;;;;;;;5018219;28;20056;-69
2023/10/14 03:36:17;;;;;;;1.73;1.60;;;;;;;;;;5017039;28;20421;-67
2023/10/14 03:38:54;;;;;;;2.30;1.83;;;;;;;;;;5021140;28;20030;-67
2023/10/14 03:41:28;;;;;;;3.05;1.95;;;;;;;;;;5014987;28;20037;-68
2023/10/14 03:43:59;;;;;;;3.95;2.22;;;;;;;;;;5019380;28;20076;-67
2023/10/14 03:46:35;;;;;;;2.95;1.60;;;;;;;;;;5012517;28;20092;-68
2023/10/14 03:49:12;;;;;;;3.35;2.10;;;;;;;;;;5032911;28;20033;-68
2023/10/14 03:51:39;;;;;;;2.78;1.83;;;;;;;;;;5019260;28;20119;-68
2023/10/14 03:54:08;;;;;;;2.63;1.63;;;;;;;;;;5014532;28;20029;-69
2023/10/14 03:56:35;;;;;;;2.53;1.90;;;;;;;;;;5019217;28;20029;-68
2023/10/14 03:59:02;;;;;;;3.33;1.80;;;;;;;;;;5020647;28;20040;-63
2023/10/14 04:04:26;;;;;;;2.65;1.80;;;;;;;;;;5024040;28;20107;-67
2023/10/14 04:07:13;;;;;;;3.08;1.75;;;;;;;;;;5023358;28;20550;-63
2023/10/14 04:09:44;;;;;;;2.15;1.80;;;;;;;;;;5024355;28;20037;-62
2023/10/14 04:12:22;;;;;;;2.90;1.98;;;;;;;;;;5027546;28;20030;-62
2023/10/14 04:14:54;;;;;;;3.88;1.80;;;;;;;;;;5027391;28;20024;-63
2023/10/14 04:17:21;;;;;;;3.72;2.33;;;;;;;;;;5029228;28;20477;-63
2023/10/14 04:19:53;;;;;;;2.45;2.03;;;;;;;;;;5025347;28;20494;-62
2023/10/14 04:25:18;;;;;;;;;;;;;;;;;;5023566;28;20061;-62
2023/10/14 04:28:03;;;;;;;3.33;2.17;;;;;;;;;;5026809;28;19917;-62
2023/10/14 04:30:42;;;;;;;3.65;1.80;;;;;;;;;;5026611;28;20030;-62
2023/10/14 04:35:56;;;;;;;3.38;2.08;;;;;;;;;;5017581;28;20088;-69
2023/10/14 04:38:28;;;;;;;1.70;1.60;;;;;;;;;;5024204;28;20123;-68
2023/10/14 04:40:58;;;;;;;2.92;2.58;;;;;;;;;;5019942;28;20037;-67
2023/10/14 04:46:13;;;;;;;2.83;1.70;;;;;;;;;;5021893;28;20124;-67
2023/10/14 04:48:39;;;;;;;3.50;1.80;;;;;;;;;;5021999;28;20054;-67
2023/10/14 04:51:08;;;;;;;3.75;1.60;;;;;;;;;;5025477;28;20053;-68
2023/10/14 04:53:34;;;;;;;4.68;2.10;;;;;;;;;;5021841;28;20030;-66
2023/10/14 04:56:04;;;;;;;1.95;1.58;;;;;;;;;;5041184;28;20025;-69
2023/10/14 04:58:32;;;;;;;2.70;1.60;;;;;;;;;;5027869;28;20025;-67
2023/10/14 05:01:00;;;;;;;1.80;1.50;;;;;;;;;;5043887;28;20068;-68
2023/10/14 05:03:29;;;;;;;4.45;1.70;;;;;;;;;;5019931;28;20025;-67
2023/10/14 05:06:40;;;;;;;1.70;1.58;;;;;;;;;;5022068;28;20572;-67
2023/10/14 05:08:45;;;;;;;2.15;1.95;;;;;;;;;;5025597;28;20030;-68
2023/10/14 05:11:13;;;;;;;1.95;1.65;;;;;;;;;;5024538;28;20026;-67
2023/10/14 05:13:42;;;;;;;2.42;2.00;;;;;;;;;;5021691;28;20057;-67
2023/10/14 05:16:26;;;;;;;1.88;1.67;;;;;;;;;;5018754;28;20029;-62
2023/10/14 05:19:00;;;;;;;1.75;1.65;;;;;;;;;;5012774;28;20141;-62
2023/10/14 05:21:36;;;;;;;5.30;1.90;;;;;;;;;;5024609;28;20347;-62
2023/10/14 05:24:13;;;;;;;3.08;1.70;;;;;;;;;;5024610;28;20105;-64
2023/10/14 05:26:48;;;;;;;1.60;1.50;;;;;;;;;;5024290;28;20030;-62
2023/10/14 05:29:17;;;;;;;;;;;;;;;;;;5018184;28;20026;-62
2023/10/14 05:31:46;;;;;;;2.30;2.08;;;;;;;;;;5017702;28;19910;-63
2023/10/14 05:34:13;;;;;;;3.33;1.65;;;;;;;;;;5021443;28;20029;-63
2023/10/14 05:36:40;;;;;;;1.67;1.42;;;;;;;;;;5020991;28;20045;-63
2023/10/14 05:39:06;;;;;;;2.28;2.08;;;;;;;;;;5020981;28;20100;-63
2023/10/14 05:41:36;;;;;;;2.40;1.90;;;;;;;;;;5018384;28;20049;-62
2023/10/14 05:44:04;;;;;;;2.50;1.90;;;;;;;;;;5024194;28;20021;-62
2023/10/14 05:46:30;;;;;;;2.58;1.80;;;;;;;;;;5023832;28;20159;-62
2023/10/14 05:48:56;;;;;;;1.83;1.73;;;;;;;;;;5018233;28;20557;-63
2023/10/14 05:51:22;;;;;;;3.17;1.70;;;;;;;;;;5020864;28;20108;-62
2023/10/14 05:53:49;;;;;;;2.05;1.60;;;;;;;;;;5020802;28;20033;-62
2023/10/14 05:56:15;;;;;;;4.57;2.13;;;;;;;;;;5020047;28;20029;-63
2023/10/14 05:58:42;;;;;;;3.03;1.95;;;;;;;;;;5020745;28;20362;-63
2023/10/14 06:01:09;;;;;;;4.93;1.70;;;;;;;;;;5024467;28;20103;-62
2023/10/14 06:03:35;;;;;;;2.65;1.80;;;;;;;;;;5015720;28;20459;-63
2023/10/14 06:06:02;;;;;;;2.42;1.50;;;;;;;;;;5015248;28;20053;-62
2023/10/14 06:08:32;;;;;;;4.40;1.63;;;;;;;;;;5017954;28;20044;-66
2023/10/14 06:10:59;;;;;;;4.22;1.83;;;;;;;;;;5020400;28;20478;-63
2023/10/14 06:13:27;;;;;;;1.60;1.50;;;;;;;;;;5026154;28;20033;-63
2023/10/14 06:15:53;;;;;;;3.00;1.95;;;;;;;;;;5024143;28;20123;-63
2023/10/14 06:18:19;;;;;;;2.47;1.63;;;;;;;;;;5024232;28;20041;-65
2023/10/14 06:20:46;;;;;;;2.80;1.60;;;;;;;;;;5020505;28;20377;-62
2023/10/14 06:23:12;;;;;;;3.30;1.85;;;;;;;;;;5024284;28;20128;-62
2023/10/14 06:25:38;;;;;;;1.45;1.40;;;;;;;;;;5022733;28;20029;-62
2023/10/14 06:28:07;;;;;;;1.90;1.70;;;;;;;;;;5023654;28;20022;-63
2023/10/14 06:30:33;;;;;;;2.83;1.45;;;;;;;;;;5020569;28;20469;-67
2023/10/14 06:33:05;;;;;;;2.58;1.40;;;;;;;;;;5024080;28;20036;-68
2023/10/14 06:35:35;;;;;;;4.45;1.95;;;;;;;;;;5018925;28;20146;-62
2023/10/14 06:38:04;;;;;;;2.03;1.63;;;;;;;;;;5018818;28;20059;-67
2023/10/14 06:40:43;;;;;;;;;;;;;;;;;;5139613;27;20398;-67
2023/10/14 06:43:09;;;;;;;1.77;1.45;;;;;;;;;;5119485;27;19985;-69
2023/10/14 06:45:36;;;;;;;1.42;1.33;;;;;;;;;;5114739;27;20552;-69
2023/10/14 06:48:03;;;;;;;1.40;1.40;;;;;;;;;;5112717;27;20031;-67
2023/10/14 06:50:31;;;;;;;1.75;1.52;;;;;;;;;;5109950;27;20050;-68
2023/10/14 06:53:00;;;;;;;1.85;1.60;;;;;;;;;;5111242;27;20024;-70
2023/10/14 06:55:39;;;;;;;1.63;1.52;;;;;;;;;;5115645;27;20027;-68
2023/10/14 06:58:09;;;;;;;1.60;1.50;;;;;;;;;;5115069;27;20026;-70
2023/10/14 07:00:38;;;;;;;3.38;1.60;;;;;;;;;;5116095;27;20031;-68
2023/10/14 07:03:24;;;;;;;1.90;1.52;;;;;;;;;;5111309;27;20020;-68
2023/10/14 07:05:57;;;;;;;3.70;3.47;;;;;;;;;;5110398;27;20034;-68
2023/10/14 07:08:27;;;;;;;1.75;1.40;;;;;;;;;;5115970;27;20110;-65
2023/10/14 07:10:54;;;;;;;2.88;1.60;;;;;;;;;;5114969;27;20027;-66
2023/10/14 07:13:21;;;;;;;1.52;1.42;;;;;;;;;;5113191;27;20061;-68
2023/10/14 07:15:48;;;;;;;4.00;1.40;;;;;;;;;;5115089;27;20039;-68
2023/10/14 07:18:18;;;;;;;1.60;1.50;;;;;;;;;;5116633;27;20390;-68
2023/10/14 07:20:45;;;;;;;2.47;1.30;;;;;;;;;;5119055;27;20034;-69
2023/10/14 07:23:11;;;;;;;1.90;1.58;;;;;;;;;;5121592;27;20034;-69
2023/10/14 07:25:40;;;;;;;3.17;1.80;;;;;;;;;;5116654;27;20126;-69
2023/10/14 07:28:15;;;;;;;3.33;1.80;;;;;;;;;;5119186;27;20040;-69
2023/10/14 07:30:50;;;;;;;;;;;;;;;;;;5113142;27;20401;-68
2023/10/14 07:33:17;;;;;;;6.30;1.83;;;;;;;;;;5123848;27;19911;-68
2023/10/14 07:35:43;;;;;;;2.92;1.58;;;;;;;;;;5111954;27;20027;-69
2023/10/14 07:38:13;;;;;;;1.85;1.60;;;;;;;;;;5116894;27;20259;-65
2023/10/14 07:40:39;;;;;;;3.17;2.05;;;;;;;;;;5116350;27;20051;-65
2023/10/14 07:43:12;;;;;;;4.07;1.65;;;;;;;;;;5121712;27;20566;-69
2023/10/14 07:45:42;;;;;;;1.90;1.58;;;;;;;;;;5118953;27;20758;-65
2023/10/14 07:48:08;;;;;;;3.78;1.90;;;;;;;;;;5115468;27;20479;-65
2023/10/14 07:50:38;;;;;;;3.72;1.77;;;;;;;;;;5106930;27;20027;-70
2023/10/14 07:53:08;;;;;;;1.80;1.38;;;;;;;;;;5103453;27;20067;-69
2023/10/14 07:55:48;;;;;;;2.72;1.83;;;;;;;;;;5096452;27;20064;-66
2023/10/14 07:58:15;;;;;;;2.40;1.90;;;;;;;;;;5117521;27;20036;-65
2023/10/14 08:00:49;;;;;;;1.50;1.40;;;;;;;;;;5103592;27;20383;-70
2023/10/14 08:03:20;;;;;;;4.93;1.67;;;;;;;;;;5100955;27;20027;-66
2023/10/14 08:05:48;;;;;;;3.33;1.80;;;;;;;;;;5099959;27;20442;-65
2023/10/14 08:08:14;;;;;;;1.52;1.42;;;;;;;;;;5093718;27;20015;-65
2023/10/14 08:10:43;;;;;;;2.42;1.80;;;;;;;;;;5100098;27;20039;-64
2023/10/14 08:13:20;;;;;;;3.63;1.58;;;;;;;;;;5097947;27;20038;-64
2023/10/14 08:15:50;;;;;;;5.32;1.65;;;;;;;;;;5100414;27;20169;-64
2023/10/14 08:18:16;;;;;;;4.38;1.80;;;;;;;;;;5106842;27;20050;-65
2023/10/14 08:20:43;;;;;;;3.75;1.60;;;;;;;;;;5099876;27;20027;-64
2023/10/14 08:23:10;;;;;;;2.78;1.83;;;;;;;;;;5108368;27;20118;-64
2023/10/14 08:25:37;;;;;;;2.40;1.40;;;;;;;;;;5100515;27;20024;-64
2023/10/14 08:28:06;;;;;;;2.13;1.95;;;;;;;;;;5101862;27;20119;-64
2023/10/14 08:30:34;;;;;;;2.05;1.50;;;;;;;;;;5100314;27;20028;-65
2023/10/14 08:33:04;;;;;;;2.58;1.33;;;;;;;;;;5106432;27;20056;-65
2023/10/14 08:35:30;;;;;;;1.98;1.80;;;;;;;;;;5101771;27;20024;-65
2023/10/14 08:37:57;;;;;;;1.50;1.40;;;;;;;;;;5099587;27;20346;-64
2023/10/14 08:40:29;;;;;;;2.10;1.70;;;;;;;;;;5103655;27;20092;-65
2023/10/14 08:43:05;;;;;;;2.72;1.60;;;;;;;;;;5100069;27;20047;-64
2023/10/14 08:45:38;;;;;;;2.25;1.80;;;;;;;;;;5099169;27;20119;-64
2023/10/14 08:48:06;;;;;;;1.48;1.38;;;;;;;;;;5099338;27;20387;-64
2023/10/14 08:50:33;;;;;;;2.08;1.88;;;;;;;;;;5097206;27;20019;-65
2023/10/14 08:53:02;;;;;;;1.60;1.50;;;;;;;;;;5098585;27;20046;-64
2023/10/14 08:55:29;;;;;;;3.38;1.60;;;;;;;;;;5099752;27;20298;-65
2023/10/14 08:58:01;;;;;;;1.73;1.60;;;;;;;;;;5097036;27;20418;-65
2023/10/14 09:00:29;;;;;;;2.50;1.52;;;;;;;;;;5104926;27;20031;-65
2023/10/14 09:02:55;;;;;;;4.32;1.70;;;;;;;;;;5102808;28;20479;-65
2023/10/14 09:05:24;;;;;;;1.50;1.40;;;;;;;;;;5099391;27;20027;-66
2023/10/14 09:07:51;;;;;;;1.88;1.65;;;;;;;;;;5106399;27;20032;-65
2023/10/14 09:10:20;;;;;;;1.88;1.77;;;;;;;;;;5110340;27;20030;-65
2023/10/14 09:12:57;;;;;;;3.13;1.67;;;;;;;;;;5097297;28;20039;-64
2023/10/14 09:15:25;;;;;;;1.45;1.30;;;;;;;;;;5099513;27;20483;-65
2023/10/14 09:17:55;;;;;;;1.73;1.63;;;;;;;;;;5097408;27;20032;-67
2023/10/14 09:20:40;;;;;;;3.70;1.95;;;;;;;;;;5103741;27;20024;-65
2023/10/14 09:23:15;;;;;;;2.20;1.50;;;;;;;;;;5107432;27;20033;-65
2023/10/14 09:25:42;;;;;;;2.88;1.85;;;;;;;;;;5099016;27;20020;-64
2023/10/14 09:28:08;;;;;;;4.10;2.30;;;;;;;;;;5100183;27;20028;-64
2023/10/14 09:30:44;;;;;;;2.38;2.08;;;;;;;;;;5097641;27;20060;-65
2023/10/14 09:33:12;;;;;;;1.67;1.58;;;;;;;;;;5099198;27;20028;-64
2023/10/14 09:35:41;;;;;;;3.17;1.90;;;;;;;;;;5095520;27;20019;-64
2023/10/14 09:38:08;;;;;;;3.60;1.80;;;;;;;;;;5097865;27;20031;-68
2023/10/14 09:40:35;;;;;;;1.63;1.52;;;;;;;;;;5098252;27;20656;-67
2023/10/14 09:43:03;;;;;;;3.15;1.80;;;;;;;;;;5103557;27;20536;-68
2023/10/14 09:45:31;;;;;;;1.70;1.60;;;;;;;;;;5104204;27;20042;-64
2023/10/14 09:47:58;;;;;;;5.25;1.80;;;;;;;;;;5099869;27;20107;-71
2023/10/14 09:50:25;;;;;;;3.15;1.70;;;;;;;;;;5097615;28;20027;-69
2023/10/14 09:52:52;;;;;;;2.40;1.60;;;;;;;;;;5097062;28;20038;-69
2023/10/14 09:55:22;;;;;;;3.63;1.80;;;;;;;;;;5102888;27;20636;-69
2023/10/14 09:57:52;;;;;;;3.22;1.80;;;;;;;;;;5101139;27;20054;-70
2023/10/14 10:00:18;;;;;;;2.20;1.48;;;;;;;;;;5119412;27;20031;-64
2023/10/14 10:02:46;;;;;;;2.53;1.63;;;;;;;;;;5110025;27;20024;-64
2023/10/14 10:05:17;;;;;;;3.42;1.80;;;;;;;;;;5101984;27;20329;-64
2023/10/14 10:08:02;;;;;;;3.40;1.70;;;;;;;;;;5101157;27;20411;-65
2023/10/14 10:10:30;;;;;;;1.42;1.40;;;;;;;;;;5098036;27;20046;-67
2023/10/14 10:12:56;;;;;;;2.65;1.65;;;;;;;;;;5102801;27;20027;-65
2023/10/14 10:15:26;;;;;;;1.95;1.73;;;;;;;;;;5101322;28;21963;-65
2023/10/14 10:18:05;;;;;;;2.13;1.40;;;;;;;;;;5103988;28;20110;-65
2023/10/14 10:20:35;;;;;;;3.08;2.05;;;;;;;;;;5103138;27;20161;-64
2023/10/14 10:23:02;;;;;;;2.40;1.38;;;;;;;;;;5105939;27;20031;-65
2023/10/14 10:25:37;;;;;;;2.35;1.67;;;;;;;;;;5093909;28;20052;-65
2023/10/14 10:28:03;;;;;;;;;;;;;;;;;;5098761;28;20468;-64
2023/10/14 10:30:29;;;;;;;;;;;;;;;;;;5102566;28;19923;-65
2023/10/14 10:32:55;;;;;;;;;;;;;;;;;;5103385;28;19908;-65
2023/10/14 10:35:21;;;;;;;;;;;;;;;;;;5102870;28;19922;-64
2023/10/14 10:37:47;;;;;;;;;;;;;;;;;;5103599;28;19918;-63
2023/10/14 10:40:13;;;;;;;;;;;;;;;;;;5101750;28;19923;-64
2023/10/14 10:42:44;;;;;;;5.40;1.60;;;;;;;;;;5107965;28;20290;-65
2023/10/14 10:45:16;;;;;;;4.18;1.80;;;;;;;;;;5106577;28;20036;-65
2023/10/14 10:47:46;;;;;;;2.38;1.70;;;;;;;;;;5105629;28;20577;-64
2023/10/14 10:50:15;;;;;;;2.53;1.65;;;;;;;;;;5106543;28;20467;-65
2023/10/14 10:52:46;;;;;;;3.15;1.70;;;;;;;;;;5104266;28;20035;-65
2023/10/14 10:55:14;;;;;;;3.45;1.95;;;;;;;;;;5104106;28;20423;-65
2023/10/14 10:57:44;;;;;;;1.48;1.38;;;;;;;;;;5102102;27;20020;-65
2023/10/14 11:00:10;;;;;;;3.38;1.60;;;;;;;;;;5101656;28;20028;-64
2023/10/14 11:02:37;;;;;;;2.20;1.50;;;;;;;;;;5111603;28;20028;-68
2023/10/14 11:05:04;;;;;;;2.63;1.52;;;;;;;;;;5107621;28;20040;-69
2023/10/14 11:07:32;;;;;;;3.40;1.70;;;;;;;;;;5098390;28;20020;-67
2023/10/14 11:10:00;;;;;;;1.85;1.70;;;;;;;;;;5099875;28;20633;-67
2023/10/14 11:12:26;;;;;;;2.92;1.60;;;;;;;;;;5102764;28;20521;-68
2023/10/14 11:14:52;;;;;;;2.45;2.03;;;;;;;;;;5103054;28;20027;-69
2023/10/14 11:17:26;;;;;;;2.55;1.80;;;;;;;;;;5099455;28;20668;-67
2023/10/14 11:19:53;;;;;;;3.17;1.83;;;;;;;;;;5107939;28;20057;-67
2023/10/14 11:22:20;;;;;;;1.92;1.73;;;;;;;;;;5107212;27;20483;-67
2023/10/14 11:24:47;;;;;;;3.10;1.60;;;;;;;;;;5099304;28;20561;-68
2023/10/14 11:27:13;;;;;;;1.70;1.60;;;;;;;;;;5104575;28;20030;-67
2023/10/14 11:29:41;;;;;;;2.78;1.85;;;;;;;;;;5106476;27;20059;-67
2023/10/14 11:32:12;;;;;;;2.58;1.60;;;;;;;;;;5100265;27;20581;-67
2023/10/14 11:34:41;;;;;;;2.65;1.50;;;;;;;;;;5106186;27;20796;-68
2023/10/14 11:37:11;;;;;;;3.38;1.58;;;;;;;;;;5105962;27;20061;-68
2023/10/14 11:39:37;;;;;;;1.48;1.38;;;;;;;;;;5099012;27;20069;-67
2023/10/14 11:42:03;;;;;;;3.38;1.70;;;;;;;;;;5096757;28;20028;-67
2023/10/14 11:44:29;;;;;;;2.33;1.60;;;;;;;;;;5105482;27;20031;-68
2023/10/14 11:46:57;;;;;;;3.58;2.50;;;;;;;;;;5106024;27;20102;-67
2023/10/14 11:49:26;;;;;;;2.55;1.52;;;;;;;;;;5105932;27;20483;-67
2023/10/14 11:51:53;;;;;;;2.40;1.63;;;;;;;;;;5103899;27;20027;-68
2023/10/14 11:54:19;;;;;;;1.70;1.60;;;;;;;;;;5098676;27;20031;-68
2023/10/14 11:56:45;;;;;;;4.97;1.60;;;;;;;;;;5104550;27;20126;-68
2023/10/14 11:59:12;;;;;;;4.50;1.60;;;;;;;;;;5114255;27;20116;-68
2023/10/14 12:01:38;;;;;;;2.00;1.65;;;;;;;;;;5102356;27;20023;-67
2023/10/14 12:04:05;;;;;;;2.55;1.65;;;;;;;;;;5103617;27;20104;-68
2023/10/14 12:06:34;;;;;;;3.80;1.70;;;;;;;;;;5103348;28;20040;-68
2023/10/14 12:09:10;;;;;;;1.83;1.40;;;;;;;;;;5113074;27;20034;-69
2023/10/14 12:11:42;;;;;;;2.28;1.67;;;;;;;;;;5105293;27;20019;-68
2023/10/14 12:14:14;;;;;;;2.72;1.60;;;;;;;;;;5098188;27;20067;-69
2023/10/14 12:16:41;;;;;;;4.18;1.70;;;;;;;;;;5107857;27;20044;-69
2023/10/14 12:19:11;;;;;;;2.30;1.80;;;;;;;;;;5110851;27;20034;-69
2023/10/14 12:21:38;;;;;;;2.55;1.55;;;;;;;;;;5095957;27;20448;-65
2023/10/14 12:24:09;;;;;;;4.18;1.40;;;;;;;;;;5103883;27;20016;-65
2023/10/14 12:26:43;;;;;;;4.25;1.70;;;;;;;;;;5099330;27;20016;-65
2023/10/14 12:29:10;;;;;;;2.10;1.65;;;;;;;;;;5105088;27;20031;-63
2023/10/14 12:31:38;;;;;;;2.30;1.80;;;;;;;;;;5108689;27;20035;-66
2023/10/14 12:34:04;;;;;;;2.67;2.03;;;;;;;;;;5106823;27;20028;-66
2023/10/14 12:36:31;;;;;;;4.88;1.88;;;;;;;;;;5105390;27;20135;-65
2023/10/14 12:38:57;;;;;;;2.85;1.83;;;;;;;;;;5124020;27;20088;-66
2023/10/14 12:41:24;;;;;;;3.88;1.70;;;;;;;;;;5116612;27;20035;-65
2023/10/14 12:44:00;;;;;;;2.80;1.70;;;;;;;;;;5110504;27;20847;-65
2023/10/14 12:46:33;;;;;;;4.30;1.83;;;;;;;;;;5110682;27;20038;-66
2023/10/14 12:49:02;;;;;;;2.50;1.95;;;;;;;;;;5108470;27;20057;-66
2023/10/14 12:51:33;;;;;;;3.55;1.80;;;;;;;;;;5098896;27;20028;-66
2023/10/14 12:54:00;;;;;;;3.72;1.70;;;;;;;;;;5111122;27;20019;-66
2023/10/14 12:56:26;;;;;;;2.80;1.70;;;;;;;;;;5103868;27;20093;-66
2023/10/14 12:58:53;;;;;;;2.58;1.80;;;;;;;;;;5116497;27;20130;-69
2023/10/14 13:01:20;;;;;;;5.70;1.80;;;;;;;;;;5111245;27;20047;-67
2023/10/14 13:03:53;;;;;;;3.80;1.50;;;;;;;;;;5103397;27;20392;-68
2023/10/14 13:06:23;;;;;;;1.92;1.15;;;;;;;;;;5109679;27;20398;-71
2023/10/14 13:09:00;;;;;;;3.88;1.50;;;;;;;;;;5080141;28;20032;-68
2023/10/14 13:11:30;;;;;;;2.90;1.55;;;;;;;;;;5106625;27;20514;-69
2023/10/14 13:13:57;;;;;;;2.88;1.45;;;;;;;;;;5109382;27;20027;-67
2023/10/14 13:16:25;;;;;;;3.42;1.92;;;;;;;;;;5109265;27;20050;-68
2023/10/14 13:18:53;;;;;;;1.55;1.48;;;;;;;;;;5106441;27;20536;-68
2023/10/14 13:21:21;;;;;;;2.75;1.80;;;;;;;;;;5105394;27;20020;-68
2023/10/14 13:23:48;;;;;;;3.30;2.00;;;;;;;;;;5099268;27;20081;-69
2023/10/14 13:26:15;;;;;;;2.15;1.60;;;;;;;;;;5120227;27;20455;-68
2023/10/14 13:28:45;;;;;;;3.63;1.90;;;;;;;;;;5108976;27;20118;-68
2023/10/14 13:31:15;;;;;;;2.47;1.75;;;;;;;;;;5104008;27;20487;-66
2023/10/14 13:33:45;;;;;;;4.90;2.10;;;;;;;;;;5096358;27;20127;-68
2023/10/14 13:36:12;;;;;;;4.47;1.60;;;;;;;;;;5116623;27;20632;-70
2023/10/14 13:38:39;;;;;;;2.75;1.95;;;;;;;;;;5096566;27;20055;-67
2023/10/14 13:41:06;;;;;;;2.42;1.60;;;;;;;;;;5093725;27;20027;-68
2023/10/14 13:43:32;;;;;;;2.83;1.55;;;;;;;;;;5095406;27;20115;-67
2023/10/14 13:45:58;;;;;;;4.20;1.70;;;;;;;;;;5090811;27;20073;-66
2023/10/14 13:48:24;;;;;;;1.60;1.50;;;;;;;;;;5089243;28;20024;-65
2023/10/14 13:50:54;;;;;;;4.72;2.30;;;;;;;;;;5087689;27;20019;-64
2023/10/14 13:53:21;;;;;;;6.05;1.70;;;;;;;;;;5099127;27;20028;-64
2023/10/14 13:55:54;;;;;;;4.70;1.83;;;;;;;;;;5103593;27;20039;-64
2023/10/14 13:58:21;;;;;;;2.20;2.00;;;;;;;;;;5101787;27;20035;-64
2023/10/14 14:00:50;;;;;;;2.67;1.90;;;;;;;;;;5095144;27;20577;-66
2023/10/14 14:03:16;;;;;;;2.42;1.90;;;;;;;;;;5101655;27;20078;-65
2023/10/14 14:05:51;;;;;;;3.38;1.70;;;;;;;;;;5097477;27;20024;-67
2023/10/14 14:08:19;;;;;;;3.22;1.90;;;;;;;;;;5098530;28;20031;-65
2023/10/14 14:10:45;;;;;;;1.92;1.80;;;;;;;;;;5092113;28;20564;-65
2023/10/14 14:13:17;;;;;;;3.85;2.00;;;;;;;;;;5095734;27;20123;-65
2023/10/14 14:15:53;;;;;;;2.60;2.10;;;;;;;;;;5095524;27;20502;-66
2023/10/14 14:18:19;;;;;;;;;;;;;;;;;;5100998;27;20035;-67
2023/10/14 14:20:47;;;;;;;2.00;1.70;;;;;;;;;;5095214;28;19916;-66
2023/10/14 14:23:15;;;;;;;2.45;2.25;;;;;;;;;;5102726;27;20513;-65
2023/10/14 14:25:43;;;;;;;3.13;2.47;;;;;;;;;;5099661;27;20135;-66
2023/10/14 14:28:09;;;;;;;1.98;1.80;;;;;;;;;;5099656;27;20407;-65
2023/10/14 14:30:36;;;;;;;2.47;2.25;;;;;;;;;;5099313;28;20023;-67
2023/10/14 14:33:05;;;;;;;3.33;2.30;;;;;;;;;;5103768;27;20037;-67
2023/10/14 14:35:32;;;;;;;2.85;2.10;;;;;;;;;;5094385;28;20036;-66
2023/10/14 14:37:58;;;;;;;3.00;1.90;;;;;;;;;;5097509;27;20039;-65
2023/10/14 14:40:27;;;;;;;2.85;1.98;;;;;;;;;;5095025;28;20043;-66
2023/10/14 14:42:54;;;;;;;4.38;2.08;;;;;;;;;;5104379;28;20030;-65
2023/10/14 14:45:24;;;;;;;6.03;3.60;;;;;;;;;;5103225;28;20157;-66
2023/10/14 14:47:57;;;;;;;4.55;2.80;;;;;;;;;;5093314;28;20472;-66
2023/10/14 14:50:26;;;;;;;5.78;3.03;;;;;;;;;;5076548;28;20035;-64
2023/10/14 14:52:53;;;;;;;5.72;2.75;;;;;;;;;;5092884;28;20546;-64
2023/10/14 14:55:20;;;;;;;4.90;3.22;;;;;;;;;;5094119;28;20589;-63
2023/10/14 14:57:51;;;;;;;5.43;2.47;;;;;;;;;;5092000;28;20031;-64
2023/10/14 15:00:27;;;;;;;8.90;3.75;;;;;;;;;;5095981;27;20035;-63
2023/10/14 15:02:57;;;;;;;4.05;2.42;;;;;;;;;;5090572;27;20027;-63
2023/10/14 15:05:26;;;;;;;2.53;2.17;;;;;;;;;;5097903;27;20373;-64
2023/10/14 15:07:53;;;;;;;2.15;1.88;;;;;;;;;;5102698;27;20356;-66
2023/10/14 15:10:20;;;;;;;3.13;1.90;;;;;;;;;;5098278;28;20031;-64
2023/10/14 15:12:47;;;;;;;3.28;2.15;;;;;;;;;;5098500;27;20036;-63
2023/10/14 15:15:15;;;;;;;8.07;3.70;;;;;;;;;;5099093;27;20027;-65
2023/10/14 15:17:42;;;;;;;6.57;4.45;;;;;;;;;;5096209;27;20500;-64